createdAt,value
2022-10-11T00:08:06.661Z,100085.81
2022-10-11T00:18:13.309Z,100098.41
2022-10-11T00:28:14.721Z,100102.06
2022-10-11T00:38:19.160Z,100120.00
2022-10-11T00:48:33.241Z,100126.88
2022-10-11T00:58:35.054Z,100124.38
2022-10-11T01:08:36.734Z,100128.19
2022-10-11T01:19:13.431Z,100125.81
2022-10-11T01:29:47.393Z,100125.47
2022-10-11T01:39:52.266Z,100128.84
2022-10-11T01:49:55.355Z,100133.91
2022-10-11T02:00:15.947Z,100131.09
2022-10-11T02:10:28.886Z,100139.13
2022-10-11T02:20:30.428Z,100140.38
2022-10-11T02:30:31.816Z,100131.59
2022-10-11T02:40:33.975Z,100141.88
2022-10-11T02:50:35.419Z,100149.22
2022-10-11T03:00:36.793Z,100156.25
2022-10-11T03:10:38.404Z,100169.88
2022-10-11T03:20:39.819Z,100177.75
2022-10-11T03:30:41.246Z,100179.53
2022-10-11T03:40:51.869Z,100194.00
2022-10-11T03:50:53.369Z,100192.56
2022-10-11T04:00:54.809Z,100201.00
2022-10-11T04:10:56.411Z,100198.34
2022-10-11T04:20:57.846Z,100206.03
2022-10-11T04:30:59.854Z,100204.94
2022-10-11T04:41:10.707Z,100211.75
2022-10-11T04:51:13.560Z,100209.56
2022-10-11T05:01:15.545Z,100228.38
2022-10-11T05:11:17.154Z,100225.19
2022-10-11T05:21:25.847Z,100244.00
2022-10-11T05:31:27.260Z,100249.81
2022-10-11T05:41:29.237Z,100257.47
2022-10-11T05:51:30.650Z,100262.25
2022-10-11T06:01:32.137Z,100262.63
2022-10-11T06:11:34.113Z,100285.03
2022-10-11T06:21:35.554Z,100293.06
2022-10-11T06:31:36.926Z,100310.09
2022-10-11T06:41:38.344Z,100320.81
2022-10-11T06:51:39.794Z,100328.00
2022-10-11T07:01:41.676Z,100340.03
2022-10-11T07:11:43.110Z,100345.13
2022-10-11T07:21:52.354Z,100358.06
2022-10-11T07:31:57.126Z,100369.97
2022-10-11T07:41:58.635Z,100374.66
2022-10-11T07:52:00.120Z,100393.00
2022-10-11T08:02:04.650Z,100386.63
2022-10-11T08:12:06.235Z,100401.88
2022-10-11T08:22:09.187Z,100403.16
2022-10-11T08:32:13.640Z,100411.09
2022-10-11T08:42:43.386Z,100404.09
2022-10-11T08:52:47.883Z,100410.31
2022-10-11T09:03:09.234Z,100409.78
2022-10-11T09:13:30.894Z,100411.91
2022-10-11T09:23:54.739Z,100411.50
2022-10-11T09:33:56.215Z,100419.47
2022-10-11T09:43:57.657Z,100419.38
2022-10-11T09:54:04.812Z,100427.47
2022-10-11T10:04:07.878Z,100424.53
2022-10-11T10:14:18.108Z,100429.50
2022-10-11T10:24:20.853Z,100429.72
2022-10-11T10:34:33.774Z,100421.00
2022-10-11T10:44:35.159Z,100413.50
2022-10-11T10:54:52.293Z,100411.53
2022-10-11T11:05:03.709Z,100401.09
2022-10-11T11:15:20.097Z,100399.75
2022-10-11T11:25:45.087Z,100392.03
2022-10-11T11:35:49.613Z,100389.38
2022-10-11T11:45:57.030Z,100378.72
2022-10-11T11:56:09.236Z,100376.09
2022-10-11T12:06:13.747Z,100366.38
2022-10-11T12:16:18.182Z,100356.28
2022-10-11T12:26:28.667Z,100350.69
2022-10-11T12:36:54.298Z,100343.00
2022-10-11T12:46:55.661Z,100327.94
2022-10-11T12:57:12.521Z,100325.19
2022-10-11T13:07:14.701Z,100317.88
2022-10-11T13:17:25.942Z,100301.78
2022-10-11T13:27:27.411Z,100294.63
2022-10-11T13:37:29.139Z,100297.97
2022-10-11T13:47:30.653Z,100302.81
2022-10-11T13:57:43.351Z,100290.41
2022-10-11T14:07:44.724Z,100293.09
2022-10-11T14:17:46.224Z,100276.47
2022-10-11T14:27:47.673Z,100275.78
2022-10-11T14:37:49.218Z,100266.03
2022-10-11T14:47:53.505Z,100269.31
2022-10-11T14:57:56.196Z,100260.50
2022-10-11T15:07:57.667Z,100257.84
2022-10-11T15:17:59.550Z,100249.47
2022-10-11T15:28:01.261Z,100251.50
2022-10-11T15:38:02.657Z,100243.03
2022-10-11T15:48:04.225Z,100245.63
2022-10-11T15:58:08.640Z,100245.72
2022-10-11T16:08:11.520Z,100241.97
2022-10-11T16:18:14.727Z,100232.59
2022-10-11T16:28:23.441Z,100235.06
2022-10-11T16:38:24.885Z,100238.84
2022-10-11T16:48:26.375Z,100242.88
2022-10-11T16:58:27.871Z,100246.47
2022-10-11T17:08:29.249Z,100244.31
2022-10-11T17:18:31.813Z,100246.16
2022-10-11T17:28:33.963Z,100245.75
2022-10-11T17:38:35.373Z,100232.53
2022-10-11T17:48:37.044Z,100247.22
2022-10-11T17:58:40.553Z,100241.03
2022-10-11T18:08:42.193Z,100255.88
2022-10-11T18:18:43.606Z,100242.63
2022-10-11T18:28:48.139Z,100231.44
2022-10-11T18:38:52.754Z,100226.91
2022-10-11T18:48:56.713Z,100221.69
2022-10-11T18:58:58.772Z,100228.75
2022-10-11T19:09:02.201Z,100234.16
2022-10-11T19:19:06.111Z,100230.47
2022-10-11T19:29:09.241Z,100236.50
2022-10-11T19:39:16.317Z,100233.00
2022-10-11T19:49:27.416Z,100227.78
2022-10-11T19:59:29.268Z,100229.66
2022-10-11T20:09:33.001Z,100231.50
2022-10-11T20:19:39.538Z,100233.50
2022-10-11T20:29:40.910Z,100228.16
2022-10-11T20:39:42.305Z,100225.97
2022-10-11T20:49:45.890Z,100214.06
2022-10-11T20:59:47.775Z,100221.25
2022-10-11T21:09:49.283Z,100222.25
2022-10-11T21:19:53.682Z,100219.59
2022-10-11T21:29:55.182Z,100204.19
2022-10-11T21:39:56.629Z,100199.81
2022-10-11T21:49:58.038Z,100199.63
2022-10-11T21:59:59.415Z,100199.78
2022-10-11T22:10:02.873Z,100205.28
2022-10-11T22:20:06.746Z,100196.53
2022-10-11T22:30:17.733Z,100207.88
2022-10-11T22:40:19.553Z,100202.81
2022-10-11T22:50:20.968Z,100208.50
2022-10-11T23:00:22.506Z,100202.31
2022-10-11T23:10:23.920Z,100201.06
2022-10-11T23:20:25.290Z,100203.53
2022-10-11T23:30:27.427Z,100207.28
2022-10-11T23:40:28.809Z,100201.34
2022-10-11T23:50:30.169Z,100214.06
